Tiempo atmosférico en la estación meteorológica de Gotarrendura , Ávila (920 m.)



Fecha
DESCASC
Temp. máxima en grados centígrados (hora)
DESCASC
Temp. mínima en grados centígrados (hora)
DESCASC
Temp. media en grados centígrados
DESCASC
Racha de viento máxima en m/sg (hora)
DESCASC
Velocidad máxima media en intervalos de 10 minutos(hora)
DESCASC
Precipitaciones diarias en mm
DESCASC
Precipitaciones de 00:00 a 06:00 en mm
DESCASC
Precipitaciones de 06:00 a 12:00 en mm
DESCASC
Precipitaciones de 12:00 a 18:00 en mm
DESCASC
Precipitaciones de 18:00 a 24:00 en mm
DESCASC
23-06-2019 29.2 (16:40) 12.8 (06:10) 21 14.17 (13:20) 8.33 (12:30) 0 0 0 0 0
22-06-2019 29.4 (16:00) 10.1 (05:50) 19.8 10.56 (09:10) 6.39 (09:10) 0 0 0 0 0
21-06-2019 23.5 (18:50) 12.6 (05:50) 18.1 7.5 (18:50) 5 (00:10) 0 0 0 0 0
20-06-2019 25.1 (15:20) 14.1 (00:00) 19.6 10 (17:50) 6.39 (17:50) 2.2 0 0 1.8 0.4
19-06-2019 24.6 (15:30) 11.5 (00:00) 18.1 11.67 (15:30) 7.78 (15:50) 0 0 0 0 0
18-06-2019 27.6 (15:50) 14.5 (00:00) 21.1 14.72 (14:00) 8.89 (20:10) 0 0 0 0 0
17-06-2019 29.5 (16:50) 9.9 (00:00) 19.7 11.39 (16:30) 5.28 (15:10) 0 0 0 0 0
16-06-2019 28.1 (17:30) 5.9 (00:00) 17 9.72 (20:30) 7.22 (20:30) 0 0 0 0 0
15-06-2019 21.8 (17:00) 6.4 (00:00) 14.1 7.5 (17:50) 5 (00:50) 0 0 0 0 0
14-06-2019 22.4 (14:00) 6.2 (00:00) 14.3 16.94 (16:50) 9.72 (16:30) 0 0 0 0 0
13-06-2019 25.8 (17:50) 5.9 (00:00) 15.8 11.94 (13:30) 6.67 (13:30) 0 0 0 0 0
12-06-2019 22.1 (17:10) 2.5 (00:00) 12.3 8.89 (17:50) 5.28 (21:00) 0 0 0 0 0
11-06-2019 18.2 (17:30) 9 (00:00) 13.6 12.5 (15:20) 6.11 (15:20) 0 0 0 0 0
10-06-2019 21.3 (18:40) 6.4 (00:00) 13.8 10 (12:50) 5.83 (20:50) 0 0 0 0 0
09-06-2019 22.8 (17:40) 7.1 (00:00) 14.9 11.94 (17:40) 7.78 (18:40) 0 0 0 0 0
08-06-2019 25.4 (16:50) 2.9 (00:00) 14.1 10 (13:20) 6.11 (18:50) 0 0 0 0 0
07-06-2019 17.2 (17:50) 5.1 (00:00) 11.2 13.61 (00:20) 9.44 (00:20) 2.8 2.8 0 0 0
06-06-2019 22.5 (14:50) 3.4 (00:00) 13 14.44 (18:20) 8.33 (19:50) 0 0 0 0 0
05-06-2019 17.7 (17:40) 7.6 (00:00) 12.7 13.06 (08:10) 9.72 (08:40) 0 0 0 0 0
04-06-2019 24.6 (18:00) 9.6 (00:00) 17.1 14.72 (18:40) 10 (18:30) 0 0 0 0 0
03-06-2019 30.8 (15:10) 14.3 (00:00) 22.5 13.89 (15:30) 8.61 (16:40) 0 0 0 0 0
02-06-2019 31.8 (15:40) 14.8 (00:00) 23.3 13.06 (13:00) 8.89 (18:30) 0 0 0 0 0
01-06-2019 31.8 (17:50) 12.5 (00:00) 22.1 14.44 (18:10) 4.44 (16:10) 0 0 0 0 0
31-05-2019 30.3 (16:40) 12.3 (00:00) 21.3 7.5 (18:00) 4.44 (03:30) 0 0 0 0 0
30-05-2019 28.2 (17:20) 5 (00:00) 16.6 7.78 (14:40) 5 (18:30) 0 0 0 0 0
29-05-2019 22.4 (17:20) 3.3 (00:00) 12.8 10 (16:00) 6.11 (18:50) 0 0 0 0 0
28-05-2019 22 (16:50) 6.1 (00:00) 14 10.56 (17:20) 6.67 (18:10) 0 0 0 0 0

Gráficas

Temp. máximas Temp. mínimas Temp. medias Precipitaciones Rachas de viento máximas Velocidades máximas media en intervalos de 10 minutos

Datos horarios

Fecha y hora oficial Temperatura (ºC) Velocidad del viento (km/h) Dirección del viento Racha (km/h) Dirección de racha Precipitación (mm) Presión (hPa) Tendencia (hPa) Humedad (%)
2019-06-26 23:00:00 24.7 5 Sudoeste 8 Sudoeste 0 -- -- 42
2019-06-26 22:00:00 27.8 4 Sudoeste 22 Sudoeste 0 -- -- 38
2019-06-26 21:00:00 30.1 10 Sur 23 Sudoeste 0 -- -- 34
2019-06-26 20:00:00 31 11 Sur 27 Sudoeste 0 -- -- 32
2019-06-26 19:00:00 31.6 15 Sudoeste 40 Sur 0 -- -- 31
2019-06-26 18:00:00 31.8 21 Sur 39 Sudeste 0 -- -- 30
2019-06-26 17:00:00 31.9 20 Sur 39 Sur 0 -- -- 30
2019-06-26 16:00:00 31.9 17 Sur 42 Sudoeste 0 -- -- 30
2019-06-26 15:00:00 31.1 18 Sudoeste 41 Sudoeste 0 -- -- 31
2019-06-26 14:00:00 30.3 22 Sur 41 Sur 0 -- -- 33
2019-06-26 13:00:00 29.5 22 Sur 43 Sudeste 0 -- -- 35
2019-06-26 12:00:00 28.6 18 Sudoeste 41 Sur 0 -- -- 36
2019-06-26 11:00:00 27.4 23 Sur 39 Sudeste 0 -- -- 35
2019-06-26 10:00:00 25.8 21 Sur 37 Sudeste 0 -- -- 37
2019-06-26 09:00:00 23.6 24 Sudeste 35 Sudeste 0 -- -- 42
2019-06-26 08:00:00 21.1 19 Sudeste 32 Sur 0 -- -- 48
2019-06-26 07:00:00 19.4 14 Sudeste 23 Sudeste 0 -- -- 53
2019-06-26 06:00:00 19.2 12 Sudeste 19 Sudeste 0 -- -- 55
2019-06-26 05:00:00 14.8 0 Calma 7 Sudoeste 0 -- -- 77
2019-06-26 04:00:00 16.5 4 Sudeste 9 Sudeste 0 -- -- 73
2019-06-26 03:00:00 16.5 5 Sudoeste 12 Sudoeste 0 -- -- 72
2019-06-26 02:00:00 17.4 6 Sudoeste 11 Sur 0 -- -- 69
2019-06-26 01:00:00 18.8 5 Sudoeste 8 Sudoeste 0 -- -- 61
2019-06-26 00:00:00 20.9 4 Norte 10 Noroeste 0 -- -- 61
2019-06-25 23:00:00 22.4 5 Noroeste 18 Noroeste 0 -- -- 56
2019-06-25 22:00:00 24.9 13 Norte 30 Norte 0 -- -- 49
2019-06-25 21:00:00 29.6 11 Sudoeste 27 Sudoeste 0 -- -- 27
2019-06-25 20:00:00 30.3 13 Sudoeste 29 Sudoeste 0 -- -- 28
2019-06-25 19:00:00 29.7 12 Sudoeste 28 Sudoeste 0 -- -- 31
2019-06-25 18:00:00 29.3 12 Sudoeste 28 Sur 0 -- -- 31
2019-06-25 17:00:00 30.3 15 Sur 36 Sur 0 -- -- 30
2019-06-25 16:00:00 31.2 14 Sur 33 Sudeste 0 -- -- 30
2019-06-25 15:00:00 30.4 12 Sur 37 Sudeste 0 -- -- 30
2019-06-25 14:00:00 26.9 14 Sur 33 Sudeste 0 -- -- 37
2019-06-25 13:00:00 27.3 17 Sur 32 Sudeste 0 -- -- 38
2019-06-25 12:00:00 26 10 Sudoeste 28 Sur 0 -- -- 43
2019-06-25 11:00:00 24.5 12 Sudeste 22 Sudeste 0 -- -- 50
2019-06-25 10:00:00 22.2 7 Sudeste 10 Este 0 -- -- 54
2019-06-25 09:00:00 18.2 5 Sudeste 8 Este 0 -- -- 63
2019-06-25 08:00:00 14.7 3 Sudoeste 16 Sudeste 0 -- -- 75
2019-06-25 07:00:00 13 13 Sudeste 18 Sudeste 0 -- -- 79
2019-06-25 06:00:00 12.1 5 Sudeste 13 Sudeste 0 -- -- 83
2019-06-25 05:00:00 10.7 0 Calma 4 Sudoeste 0 -- -- 80
2019-06-25 04:00:00 10.7 0 Calma 5 Sur 0 -- -- 79
2019-06-25 03:00:00 11.5 2 Sudeste 6 Sudoeste 0 -- -- 74
2019-06-25 02:00:00 11.8 3 Oeste 7 Oeste 0 -- -- 73
2019-06-25 01:00:00 12.9 0 Calma 5 Sudeste 0 -- -- 73
2019-06-25 00:00:00 13.7 3 Sudeste 8 Este 0 -- -- 74
2019-06-24 23:00:00 14.1 3 Nordeste 10 Norte 0 -- -- 71
2019-06-24 22:00:00 15.8 7 Norte 19 Noroeste 0 -- -- 66
2019-06-24 21:00:00 17.7 9 Noroeste 34 Noroeste 0 -- -- 63
2019-06-24 20:00:00 19.3 24 Noroeste 38 Noroeste 0 -- -- 58
2019-06-24 19:00:00 22.9 28 Noroeste 42 Noroeste 0 -- -- 48
2019-06-24 18:00:00 24.1 16 Noroeste 40 Noroeste 0 -- -- 47
2019-06-24 17:00:00 25.4 30 Noroeste 44 Noroeste 0 -- -- 46
2019-06-24 16:00:00 27.1 14 Sudoeste 36 Sudoeste 0 -- -- 31
2019-06-24 15:00:00 27.1 13 Sudoeste 32 Sudoeste 0 -- -- 30
2019-06-24 14:00:00 27 11 Sudoeste 35 Sudoeste 0 -- -- 33
2019-06-24 13:00:00 25.3 14 Sudoeste 29 Oeste 0 -- -- 32
2019-06-24 12:00:00 23.9 17 Sudeste 26 Sudeste 0 -- -- 34
2019-06-24 11:00:00 23 15 Sur 22 Sur 0 -- -- 35
2019-06-24 10:00:00 21.5 7 Sur 14 Sudeste 0 -- -- 42
2019-06-24 09:00:00 18.3 2 Sudeste 8 Sudeste 0 -- -- 66
2019-06-24 08:00:00 16 2 Sudoeste 5 Sur 0 -- -- 69
2019-06-24 07:00:00 15.4 3 Sudoeste 6 Sudoeste 0 -- -- 66
2019-06-24 06:00:00 16.2 3 Oeste 12 Oeste 0 -- -- 59
2019-06-24 05:00:00 16.2 4 Oeste 10 Noroeste 0 -- -- 43
2019-06-24 04:00:00 16.9 5 Sudoeste 14 Sudoeste 0 -- -- 44
2019-06-24 03:00:00 17.4 5 Sudoeste 10 Sudoeste 0 -- -- 43
2019-06-24 02:00:00 17.7 7 Sudoeste 10 Sudoeste 0 -- -- 43
2019-06-24 01:00:00 19 3 Sur 5 Sudoeste 0 -- -- 37
2019-06-24 00:00:00 20.2 2 Sur 10 Noroeste 0 -- -- 34
2019-06-23 23:00:00 21.6 6 Noroeste 15 Noroeste 0 -- -- 30
2019-06-23 22:00:00 24 6 Oeste 12 Sudoeste 0 -- -- 30
2019-06-23 21:00:00 25.4 9 Oeste 17 Oeste 0 -- -- 28
2019-06-23 20:00:00 26.6 11 Sudoeste 26 Sudoeste 0 -- -- 27
2019-06-23 19:00:00 27.1 13 Sudoeste 27 Sudoeste 0 -- -- 25
2019-06-23 18:00:00 28.2 16 Sudoeste 33 Sudoeste 0 -- -- 23
2019-06-23 17:00:00 28.8 11 Sudoeste 29 Sudoeste 0 -- -- 22
2019-06-23 16:00:00 28.6 18 Sudoeste 33 Sudoeste 0 -- -- 22
2019-06-23 15:00:00 28 17 Sudoeste 36 Sur 0 -- -- 25
2019-06-23 14:00:00 28.5 22 Sudoeste 51 Sudoeste 0 -- -- 26
2019-06-23 13:00:00 26.9 26 Sudoeste 46 Sudoeste 0 -- -- 31
2019-06-23 12:00:00 24.1 3 Sudoeste 10 Nordeste 0 -- -- 32
2019-06-23 11:00:00 21.5 4 Nordeste 16 Nordeste 0 -- -- 36
2019-06-23 10:00:00 18.9 6 Nordeste 10 Nordeste 0 -- -- 43
2019-06-23 09:00:00 17.3 4 Este 10 Sudeste 0 -- -- 42
2019-06-23 08:00:00 14.5 0 Calma 9 Norte 0 -- -- 51
2019-06-23 07:00:00 13 5 Sudoeste 14 Sudoeste 0 -- -- 53
2019-06-23 06:00:00 12.9 6 Sudoeste 9 Noroeste 0 -- -- 55
2019-06-23 05:00:00 14.1 2 Oeste 8 Sudoeste 0 -- -- 52
2019-06-23 04:00:00 15.7 4 Sur 10 Sudoeste 0 -- -- 51
2019-06-23 03:00:00 15.4 5 Sudeste 10 Sudoeste 0 -- -- 50
2019-06-23 02:00:00 16.4 4 Sur 9 Sur 0 -- -- 47
2019-06-23 01:00:00 17.6 5 Sur 11 Sudeste 0 -- -- 45
2019-06-23 00:00:00 18.8 9 Sudoeste 13 Sudoeste 0 -- -- 40
2019-06-22 23:00:00 21.6 5 Sudoeste 17 Sudoeste 0 -- -- 35
2019-06-22 22:00:00 24.4 13 Sudoeste 26 Sudoeste 0 -- -- 30
2019-06-22 21:00:00 26.8 15 Sudoeste 31 Sudoeste 0 -- -- 24
2019-06-22 20:00:00 28.1 11 Sur 31 Sur 0 -- -- 25
2019-06-22 19:00:00 28.7 14 Sur 36 Sudeste 0 -- -- 24
2019-06-22 18:00:00 28.6 17 Sur 30 Sur 0 -- -- 26
2019-06-22 17:00:00 29.4 11 Sur 29 Sur 0 -- -- 27
2019-06-22 16:00:00 29.4 14 Sur 32 Sur 0 -- -- 27
2019-06-22 15:00:00 28.8 18 Sur 33 Sur 0 -- -- 27
2019-06-22 14:00:00 27.9 7 Sudoeste 22 Oeste 0 -- -- 28
2019-06-22 13:00:00 27 10 Sur 25 Sudoeste 0 -- -- 29
2019-06-22 12:00:00 25.5 12 Sur 27 Sudeste 0 -- -- 35
2019-06-22 11:00:00 23.7 12 Sur 26 Sur 0 -- -- 47
2019-06-22 10:00:00 21.2 15 Sur 38 Sudeste 0 -- -- 55
2019-06-22 09:00:00 18.4 19 Sur 35 Sudeste 0 -- -- 62
2019-06-22 08:00:00 13.4 5 Sudeste 10 Sur 0 -- -- 70
2019-06-22 07:00:00 10.9 4 Sur 10 Sur 0 -- -- 77
2019-06-22 06:00:00 10.5 5 Sur 17 Sudeste 0 -- -- 78
2019-06-22 05:00:00 11.7 3 Noroeste 15 Sur 0 -- -- 68
2019-06-22 04:00:00 14.2 10 Sur 19 Sudeste 0 -- -- 64
2019-06-22 03:00:00 14.2 12 Sudeste 19 Sudeste 0 -- -- 65
2019-06-22 02:00:00 14.3 10 Sudeste 17 Sudeste 0 -- -- 65
2019-06-22 01:00:00 13.8 7 Este 14 Este 0 -- -- 63
2019-06-22 00:00:00 15 7 Este 13 Nordeste 0 -- -- 57
2019-06-21 23:00:00 17.1 10 Nordeste 15 Nordeste 0 -- -- 50
2019-06-21 22:00:00 19.6 8 Norte 16 Norte 0 -- -- 40
2019-06-21 21:00:00 22.5 9 Norte 18 Nordeste 0 -- -- 35
2019-06-21 20:00:00 23 10 Norte 24 Norte 0 -- -- 34
2019-06-21 19:00:00 23.5 10 Norte 27 Norte 0 -- -- 34
2019-06-21 18:00:00 22.9 10 Norte 22 Norte 0 -- -- 37
2019-06-21 17:00:00 22.9 4 Norte 18 Nordeste 0 -- -- 41
2019-06-21 16:00:00 21.4 7 Este 19 Este 0 -- -- 46
2019-06-21 15:00:00 19.4 10 Este 21 Nordeste 0 -- -- 54
2019-06-21 14:00:00 17.2 8 Nordeste 18 Este 0 -- -- 69
2019-06-21 13:00:00 14.4 6 Nordeste 14 Norte 0 -- -- 79
2019-06-21 12:00:00 13.6 8 Norte 15 Norte 0 -- -- 82
2019-06-21 11:00:00 13.4 9 Norte 19 Noroeste 0 -- -- 82
2019-06-21 10:00:00 13.5 10 Norte 15 Norte 0 -- -- 81
2019-06-21 09:00:00 13.4 7 Noroeste 13 Noroeste 0 -- -- 85
2019-06-21 08:00:00 13 3 Noroeste 7 Norte 0 -- -- 86
2019-06-21 07:00:00 12.7 2 Noroeste 5 Norte 0 -- -- 88
2019-06-21 06:00:00 12.6 4 Norte 6 Norte 0 -- -- 89
2019-06-21 05:00:00 12.7 4 Nordeste 11 Este 0 -- -- 88
2019-06-21 04:00:00 12.8 6 Nordeste 15 Este 0 -- -- 89
2019-06-21 03:00:00 13.1 9 Este 18 Nordeste 0 -- -- 88
2019-06-21 02:00:00 12.9 13 Nordeste 26 Nordeste 0 -- -- 88
2019-06-21 01:00:00 14.2 17 Nordeste 25 Norte 0 -- -- 86
2019-06-21 00:00:00 16.4 15 Norte 32 Oeste 0 -- -- 70
2019-06-20 23:00:00 17.5 11 Oeste 13 Oeste 0 -- -- 66
2019-06-20 22:00:00 17.9 4 Noroeste 12 Noroeste 0 -- -- 67
2019-06-20 21:00:00 18.4 4 Noroeste 16 Norte 0.4 -- -- 65
2019-06-20 20:00:00 19.4 9 Noroeste 22 Oeste 0 -- -- 58
2019-06-20 19:00:00 18.8 11 Sur 22 Sur 0 -- -- 68
2019-06-20 18:00:00 17.3 20 Sudeste 36 Sur 1.6 -- -- 72
2019-06-20 17:00:00 22.4 10 Sur 31 Sur 0 -- -- 46
2019-06-20 16:00:00 22.5 18 Sudeste 30 Sudeste 0.2 -- -- 52
2019-06-20 15:00:00 24.7 5 Sur 14 Este 0 -- -- 34
2019-06-20 14:00:00 23 8 Sudeste 18 Este 0 -- -- 38
2019-06-20 13:00:00 22.4 3 Oeste 14 Sudeste 0 -- -- 42
2019-06-20 12:00:00 21 5 Este 17 Este 0 -- -- 46
2019-06-20 11:00:00 20.2 4 Este 13 Este 0 -- -- 49
2019-06-20 10:00:00 19.3 3 Nordeste 7 Oeste 0 -- -- 51
2019-06-20 09:00:00 16.7 3 Noroeste 10 Oeste 0 -- -- 59
2019-06-20 08:00:00 15.3 7 Noroeste 10 Noroeste 0 -- -- 63
2019-06-20 07:00:00 14.9 4 Noroeste 10 Oeste 0 -- -- 64
2019-06-20 06:00:00 15.4 4 Noroeste 12 Oeste 0 -- -- 63
2019-06-20 05:00:00 15.6 9 Oeste 12 Oeste 0 -- -- 64
2019-06-20 04:00:00 15.8 6 Oeste 11 Oeste 0 -- -- 64
2019-06-20 03:00:00 14.2 4 Sudoeste 12 Sudoeste 0 -- -- 66
2019-06-20 02:00:00 14.8 6 Sudoeste 12 Sudoeste 0 -- -- 62
2019-06-20 01:00:00 16 6 Oeste 11 Oeste 0 -- -- 58
2019-06-20 00:00:00 16.6 8 Oeste 11 Oeste 0 -- -- 54
2019-06-19 23:00:00 18 8 Oeste 23 Oeste 0 -- -- 50
2019-06-19 22:00:00 20.3 15 Noroeste 30 Noroeste 0 -- -- 46
2019-06-19 21:00:00 21.6 21 Oeste 33 Oeste 0 -- -- 43
2019-06-19 20:00:00 22.2 21 Oeste 35 Oeste 0 -- -- 40
2019-06-19 19:00:00 22.4 22 Noroeste 40 Noroeste 0 -- -- 41
2019-06-19 18:00:00 24.3 20 Noroeste 35 Oeste 0 -- -- 37
2019-06-19 17:00:00 23.5 20 Noroeste 39 Oeste 0 -- -- 38
2019-06-19 16:00:00 24.6 20 Oeste 42 Oeste 0 -- -- 36
2019-06-19 15:00:00 23.6 17 Noroeste 39 Noroeste 0 -- -- 37
2019-06-19 14:00:00 23 18 Noroeste 35 Oeste 0 -- -- 42
2019-06-19 13:00:00 21.1 15 Oeste 33 Noroeste 0 -- -- 48
2019-06-19 12:00:00 20.2 17 Oeste 34 Oeste 0 -- -- 50
2019-06-19 11:00:00 19 15 Oeste 35 Oeste 0 -- -- 51
2019-06-19 10:00:00 17.8 21 Oeste 28 Noroeste 0 -- -- 57
2019-06-19 09:00:00 17 7 Oeste 17 Oeste 0 -- -- 59
2019-06-19 08:00:00 14 6 Noroeste 12 Norte 0 -- -- 70
2019-06-19 07:00:00 11.8 2 Sur 9 Sudoeste 0 -- -- 74
2019-06-19 06:00:00 12.1 5 Sudoeste 8 Sudoeste 0 -- -- 76
2019-06-19 05:00:00 12.2 2 Nordeste 9 Sudoeste 0 -- -- 72
2019-06-19 04:00:00 14.1 4 Oeste 16 Oeste 0 -- -- 70
2019-06-19 03:00:00 15 10 Sudoeste 15 Sudoeste 0 -- -- 67
2019-06-19 02:00:00 16 8 Sudoeste 13 Sudoeste 0 -- -- 66
2019-06-19 01:00:00 16.4 8 Sudoeste 15 Sudoeste 0 -- -- 60
2019-06-19 00:00:00 17.3 9 Sudoeste 14 Sudoeste 0 -- -- 55
2019-06-18 23:00:00 18.8 9 Sudoeste 18 Oeste 0 -- -- 52
2019-06-18 22:00:00 20.4 12 Oeste 32 Oeste 0 -- -- 48
2019-06-18 21:00:00 22.6 20 Oeste 44 Oeste 0 -- -- 39
2019-06-18 20:00:00 24.3 27 Oeste 47 Oeste 0 -- -- 35
2019-06-18 19:00:00 25.8 14 Sudoeste 36 Sudoeste 0 -- -- 31
2019-06-18 18:00:00 27 16 Sudoeste 45 Sur 0 -- -- 25
2019-06-18 17:00:00 26.7 20 Sur 45 Sur 0 -- -- 22
2019-06-18 16:00:00 27.1 26 Sudoeste 50 Sudoeste 0 -- -- 17
2019-06-18 15:00:00 27.2 26 Sur 50 Sur 0 -- -- 14
2019-06-18 14:00:00 26.9 24 Sudoeste 53 Sudoeste 0 -- -- 12
2019-06-18 13:00:00 26.5 23 Sur 44 Sur 0 -- -- 13
2019-06-18 12:00:00 25.7 20 Sur 43 Sudoeste 0 -- -- 13
2019-06-18 11:00:00 24.8 14 Sur 26 Sur 0 -- -- 20
2019-06-18 10:00:00 23.3 10 Sur 25 Sudeste 0 -- -- 26
2019-06-18 09:00:00 21.2 9 Sur 20 Sur 0 -- -- 28
2019-06-18 08:00:00 20.2 6 Sur 17 Sur 0 -- -- 30
2019-06-18 07:00:00 16.4 7 Sur 14 Sur 0 -- -- 33
2019-06-18 06:00:00 14.9 4 Sur 11 Sur 0 -- -- 34
2019-06-18 05:00:00 14.5 5 Sudoeste 9 Sudoeste 0 -- -- 35
2019-06-18 04:00:00 15 4 Sur 13 Sur 0 -- -- 34
2019-06-18 03:00:00 15.4 4 Sur 14 Sudoeste 0 -- -- 32
2019-06-18 02:00:00 18.1 3 Sudeste 14 Sur 0 -- -- 30
2019-06-18 01:00:00 19 10 Este 15 Este 0 -- -- 34
2019-06-18 00:00:00 20.7 7 Noroeste 12 Noroeste 0 -- -- 25
2019-06-17 23:00:00 21.6 5 Noroeste 16 Noroeste 0 -- -- 22
2019-06-17 22:00:00 23 11 Noroeste 17 Oeste 0 -- -- 22
2019-06-17 21:00:00 25 9 Oeste 23 Sudoeste 0 -- -- 24
2019-06-17 20:00:00 26.4 14 Sudoeste 30 Sur 0 -- -- 21
2019-06-17 19:00:00 27.5 15 Sur 32 Sudoeste 0 -- -- 18
2019-06-17 18:00:00 29.3 14 Sur 35 Sur 0 -- -- 16
2019-06-17 17:00:00 29.3 13 Sudoeste 41 Sudoeste 0 -- -- 14
2019-06-17 16:00:00 29.3 14 Sur 33 Sur 0 -- -- 18
2019-06-17 15:00:00 28 17 Sur 34 Sudeste 0 -- -- 19
2019-06-17 14:00:00 27.7 14 Sur 36 Sudeste 0 -- -- 20
2019-06-17 13:00:00 27 15 Sur 30 Sudeste 0 -- -- 21
2019-06-17 12:00:00 25.7 9 Norte 19 Norte 0 -- -- 24
2019-06-17 11:00:00 24.2 7 Norte 14 Norte 0 -- -- 28
2019-06-17 10:00:00 23.3 4 Nordeste 8 Este 0 -- -- 28
2019-06-17 09:00:00 19.4 4 Sudeste 9 Sur 0 -- -- 32
2019-06-17 08:00:00 13.6 4 Sur 8 Sur 0 -- -- 42
2019-06-17 07:00:00 10.1 3 Sur 9 Sudoeste 0 -- -- 48
2019-06-17 06:00:00 10.3 4 Sur 13 Sudeste 0 -- -- 48
2019-06-17 05:00:00 11.1 5 Sur 9 Sudeste 0 -- -- 46
2019-06-17 04:00:00 11.7 4 Sudoeste 18 Noroeste 0 -- -- 45
2019-06-17 03:00:00 12.9 3 Sur 6 Sudeste 0 -- -- 40
2019-06-17 02:00:00 13.9 3 Sur 12 Sudoeste 0 -- -- 40
2019-06-17 01:00:00 14.8 8 Sudoeste 12 Sudoeste 0 -- -- 38
2019-06-17 00:00:00 16 8 Sudoeste 13 Oeste 0 -- -- 36
2019-06-16 23:00:00 17.1 8 Oeste 13 Noroeste 0 -- -- 32
2019-06-16 22:00:00 21.4 8 Oeste 22 Oeste 0 -- -- 27
2019-06-16 21:00:00 23.7 20 Oeste 35 Oeste 0 -- -- 22
2019-06-16 20:00:00 26.3 16 Noroeste 25 Oeste 0 -- -- 22
2019-06-16 19:00:00 27.1 6 Noroeste 23 Oeste 0 -- -- 19
2019-06-16 18:00:00 27.2 8 Sudeste 22 Sudoeste 0 -- -- 19
2019-06-16 17:00:00 27.4 11 Sur 29 Sur 0 -- -- 19
2019-06-16 16:00:00 26.8 10 Sur 31 Sudeste 0 -- -- 20
2019-06-16 15:00:00 26.4 15 Sudeste 31 Sur 0 -- -- 21
2019-06-16 14:00:00 25.9 11 Sur 27 Sudeste 0 -- -- 20
2019-06-16 13:00:00 25.5 9 Sur 26 Sudeste 0 -- -- 21
2019-06-16 12:00:00 24.5 13 Sur 26 Sur 0 -- -- 23
2019-06-16 11:00:00 23.9 9 Sur 25 Sudeste 0 -- -- 25
2019-06-16 10:00:00 21.4 8 Sudeste 19 Sudeste 0 -- -- 30
2019-06-16 09:00:00 16.9 3 Sudeste 6 Sur 0 -- -- 36
2019-06-16 08:00:00 11 2 Sur 7 Sudoeste 0 -- -- 45
2019-06-16 07:00:00 6.6 4 Sudoeste 5 Sur 0 -- -- 52
2019-06-16 06:00:00 6.5 0 Calma 7 Sudoeste 0 -- -- 51
2019-06-16 05:00:00 7.3 3 Sur 7 Sudoeste 0 -- -- 51
2019-06-16 04:00:00 7.8 5 Sudoeste 8 Sudoeste 0 -- -- 51
2019-06-16 03:00:00 9.6 2 Sur 6 Sur 0 -- -- 45
2019-06-16 02:00:00 9.9 4 Sudoeste 9 Sudoeste 0 -- -- 44
2019-06-16 01:00:00 10.9 6 Sudoeste 9 Sudoeste 0 -- -- 41
2019-06-16 00:00:00 12.1 5 Sudoeste 9 Sudoeste 0 -- -- 38
2019-06-15 23:00:00 14.5 4 Sudoeste 6 Norte 0 -- -- 34
2019-06-15 22:00:00 18.1 6 Noroeste 15 Noroeste 0 -- -- 30
2019-06-15 21:00:00 21 9 Noroeste 17 Norte 0 -- -- 27
2019-06-15 20:00:00 21.4 10 Noroeste 23 Oeste 0 -- -- 26
2019-06-15 19:00:00 21.7 10 Noroeste 20 Noroeste 0 -- -- 27
2019-06-15 18:00:00 21.7 6 Norte 27 Norte 0 -- -- 28
2019-06-15 17:00:00 21.8 6 Norte 22 Norte 0 -- -- 29
2019-06-15 16:00:00 20.5 8 Noroeste 22 Norte 0 -- -- 31
2019-06-15 15:00:00 19.8 8 Noroeste 23 Noroeste 0 -- -- 33
2019-06-15 14:00:00 18.4 12 Norte 22 Noroeste 0 -- -- 37
2019-06-15 13:00:00 17 6 Noroeste 18 Noroeste 0 -- -- 43
2019-06-15 12:00:00 15.8 5 Nordeste 15 Nordeste 0 -- -- 46
2019-06-15 11:00:00 14.5 5 Norte 17 Noroeste 0 -- -- 52
2019-06-15 10:00:00 12.9 8 Norte 19 Noroeste 0 -- -- 60
2019-06-15 09:00:00 11.6 11 Norte 18 Norte 0 -- -- 64
2019-06-15 08:00:00 10.5 4 Sur 9 Sur 0 -- -- 69
2019-06-15 07:00:00 6.4 2 Sur 9 Sudoeste 0 -- -- 81
2019-06-15 06:00:00 6.4 2 Oeste 14 Oeste 0 -- -- 78
2019-06-15 05:00:00 7.2 12 Oeste 14 Oeste 0 -- -- 75
2019-06-15 04:00:00 7.2 7 Oeste 15 Sudoeste 0 -- -- 69
2019-06-15 03:00:00 7.9 6 Sudoeste 12 Sudoeste 0 -- -- 65
2019-06-15 02:00:00 9.9 6 Oeste 22 Oeste 0 -- -- 61
2019-06-15 01:00:00 11 17 Oeste 26 Oeste 0 -- -- 59
2019-06-15 00:00:00 11.7 13 Oeste 24 Oeste 0 -- -- 52
2019-06-14 23:00:00 13.5 20 Oeste 38 Oeste 0 -- -- 46
2019-06-14 22:00:00 16 28 Oeste 41 Oeste 0 -- -- 38
2019-06-14 21:00:00 17.4 29 Oeste 42 Oeste 0 -- -- 36
2019-06-14 20:00:00 19.1 28 Oeste 44 Oeste 0 -- -- 30
2019-06-14 19:00:00 19.8 32 Oeste 47 Oeste 0 -- -- 26
2019-06-14 18:00:00 20.9 35 Oeste 50 Oeste 0 -- -- 25
2019-06-14 17:00:00 21.5 34 Oeste 61 Oeste 0 -- -- 24
2019-06-14 16:00:00 21.8 31 Oeste 46 Oeste 0 -- -- 26
2019-06-14 15:00:00 22.1 32 Oeste 48 Oeste 0 -- -- 27
2019-06-14 14:00:00 22.4 9 Noroeste 35 Noroeste 0 -- -- 26
2019-06-14 13:00:00 21.3 18 Oeste 32 Oeste 0 -- -- 23
2019-06-14 12:00:00 21.1 7 Este 17 Sur 0 -- -- 25
2019-06-14 11:00:00 19.4 5 Nordeste 19 Noroeste 0 -- -- 30
2019-06-14 10:00:00 16.6 8 Oeste 19 Oeste 0 -- -- 38
2019-06-14 09:00:00 15.3 8 Oeste 15 Oeste 0 -- -- 43
2019-06-14 08:00:00 9.5 6 Sudoeste 12 Sudoeste 0 -- -- 53
2019-06-14 07:00:00 6.2 6 Sudoeste 8 Sudoeste 0 -- -- 56
2019-06-14 06:00:00 7.3 4 Sur 13 Sudoeste 0 -- -- 54
2019-06-14 05:00:00 8.4 6 Sudoeste 12 Sudoeste 0 -- -- 49
2019-06-14 04:00:00 9.4 8 Sudoeste 12 Sudoeste 0 -- -- 45
2019-06-14 03:00:00 10.6 9 Sudoeste 13 Sudoeste 0 -- -- 40
2019-06-14 02:00:00 12.1 8 Sudoeste 11 Sudoeste 0 -- -- 33
2019-06-14 01:00:00 13.1 5 Sudoeste 8 Sudoeste 0 -- -- 31
2019-06-14 00:00:00 15.4 5 Sudoeste 10 Oeste 0 -- -- 26
2019-06-13 23:00:00 16.9 5 Oeste 12 Noroeste 0 -- -- 24
2019-06-13 22:00:00 19.3 12 Oeste 30 Oeste 0 -- -- 21
2019-06-13 21:00:00 21.5 18 Oeste 31 Noroeste 0 -- -- 19
2019-06-13 20:00:00 22.2 22 Oeste 38 Oeste 0 -- -- 19
2019-06-13 19:00:00 24.4 10 Oeste 22 Sudoeste 0 -- -- 17
2019-06-13 18:00:00 25.6 12 Sudoeste 30 Sur 0 -- -- 15
2019-06-13 17:00:00 25.6 13 Sudoeste 40 Sudoeste 0 -- -- 16
2019-06-13 16:00:00 25.4 13 Sudoeste 36 Sudoeste 0 -- -- 17
2019-06-13 15:00:00 24.8 16 Sur 39 Sudoeste 0 -- -- 18
2019-06-13 14:00:00 23.9 20 Sudoeste 43 Sudoeste 0 -- -- 19
2019-06-13 13:00:00 21.6 17 Oeste 30 Oeste 0 -- -- 26
2019-06-13 12:00:00 19.2 14 Noroeste 21 Noroeste 0 -- -- 33
2019-06-13 11:00:00 17.1 5 Noroeste 15 Noroeste 0 -- -- 37
2019-06-13 10:00:00 14.1 7 Noroeste 15 Noroeste 0 -- -- 41
2019-06-13 09:00:00 11.9 8 Noroeste 13 Noroeste 0 -- -- 43
2019-06-13 08:00:00 8.9 3 Oeste 7 Sur 0 -- -- 46
2019-06-13 07:00:00 5.9 3 Sur 8 Sur 0 -- -- 52
2019-06-13 06:00:00 7.8 3 Sur 12 Sudoeste 0 -- -- 45
2019-06-13 05:00:00 8.3 7 Sudoeste 14 Sudoeste 0 -- -- 43
2019-06-13 04:00:00 8.6 8 Sudoeste 14 Sudoeste 0 -- -- 42
2019-06-13 03:00:00 8.9 8 Sudoeste 13 Sur 0 -- -- 42
2019-06-13 02:00:00 8.6 8 Sudoeste 11 Sudoeste 0 -- -- 42
2019-06-13 01:00:00 9.6 7 Sudoeste 11 Sudoeste 0 -- -- 39
2019-06-13 00:00:00 12 6 Sudoeste 10 Sudoeste 0 -- -- 33
2019-06-12 23:00:00 14.5 5 Sudoeste 12 Oeste 0 -- -- 31
2019-06-12 22:00:00 17.7 7 Oeste 22 Noroeste 0 -- -- 25
2019-06-12 21:00:00 20.5 19 Noroeste 27 Oeste 0 -- -- 23
2019-06-12 20:00:00 21.1 17 Oeste 28 Oeste 0 -- -- 22
2019-06-12 19:00:00 21.7 8 Oeste 30 Oeste 0 -- -- 22
2019-06-12 18:00:00 21.6 14 Oeste 32 Noroeste 0 -- -- 22
2019-06-12 17:00:00 21.9 10 Norte 26 Oeste 0 -- -- 24
2019-06-12 16:00:00 20.3 7 Noroeste 24 Noroeste 0 -- -- 28
2019-06-12 15:00:00 19.4 8 Noroeste 24 Norte 0 -- -- 30
2019-06-12 14:00:00 18.4 11 Norte 26 Noroeste 0 -- -- 32
2019-06-12 13:00:00 17.5 9 Nordeste 20 Norte 0 -- -- 33
2019-06-12 12:00:00 15.8 7 Norte 15 Nordeste 0 -- -- 39
2019-06-12 11:00:00 14 7 Este 16 Este 0 -- -- 45
2019-06-12 10:00:00 12.2 6 Nordeste 12 Nordeste 0 -- -- 50
2019-06-12 09:00:00 10.9 0 Calma 6 Sudoeste 0 -- -- 52
2019-06-12 08:00:00 5.9 4 Sudoeste 9 Sudoeste 0 -- -- 66
2019-06-12 07:00:00 2.5 4 Sudoeste 8 Sudoeste 0 -- -- 72
2019-06-12 06:00:00 3.1 6 Sudoeste 11 Sudoeste 0 -- -- 71
2019-06-12 05:00:00 4.1 5 Sudoeste 9 Sudoeste 0 -- -- 67
2019-06-12 04:00:00 4.5 5 Oeste 10 Sudoeste 0 -- -- 63
2019-06-12 03:00:00 5.1 4 Oeste 10 Oeste 0 -- -- 59
2019-06-12 02:00:00 5.7 7 Sudoeste 10 Sudoeste 0 -- -- 57
2019-06-12 01:00:00 6.9 4 Sudoeste 6 Sudoeste 0 -- -- 49
2019-06-12 00:00:00 9.1 2 Noroeste 7 Noroeste 0 -- -- 45
2019-06-11 23:00:00 11.1 8 Norte 15 Norte 0 -- -- 40
2019-06-11 22:00:00 13.7 11 Noroeste 31 Norte 0 -- -- 34
2019-06-11 21:00:00 16.5 17 Norte 30 Norte 0 -- -- 26
2019-06-11 20:00:00 17.1 18 Norte 36 Nordeste 0 -- -- 27
2019-06-11 19:00:00 17.6 16 Norte 37 Norte 0 -- -- 25
2019-06-11 18:00:00 17.8 16 Nordeste 35 Norte 0 -- -- 24
2019-06-11 17:00:00 17.8 18 Norte 36 Norte 0 -- -- 25
2019-06-11 16:00:00 17.3 20 Norte 45 Norte 0 -- -- 24
2019-06-11 15:00:00 16.9 20 Norte 34 Norte 0 -- -- 28
2019-06-11 14:00:00 16 18 Norte 37 Norte 0 -- -- 39
2019-06-11 13:00:00 13.8 13 Nordeste 30 Norte 0 -- -- 46
2019-06-11 12:00:00 12.4 10 Norte 25 Norte 0 -- -- 57
2019-06-11 11:00:00 11 11 Norte 25 Nordeste 0 -- -- 63
2019-06-11 10:00:00 10.1 12 Norte 19 Nordeste 0 -- -- 68
2019-06-11 09:00:00 9.2 8 Nordeste 13 Nordeste 0 -- -- 75
2019-06-11 08:00:00 9 6 Nordeste 15 Norte 0 -- -- 75
2019-06-11 07:00:00 9.4 9 Norte 15 Norte 0 -- -- 74
2019-06-11 06:00:00 9.9 8 Norte 13 Norte 0 -- -- 71
2019-06-11 05:00:00 10.6 9 Noroeste 24 Norte 0 -- -- 69
2019-06-11 04:00:00 12.1 13 Noroeste 23 Noroeste 0 -- -- 63
2019-06-11 03:00:00 13.3 14 Oeste 21 Noroeste 0 -- -- 50
2019-06-11 02:00:00 13.2 11 Oeste 19 Noroeste 0 -- -- 49
2019-06-11 01:00:00 14 12 Oeste 28 Noroeste 0 -- -- 40
2019-06-11 00:00:00 15.3 12 Oeste 21 Oeste 0 -- -- 32
2019-06-10 23:00:00 15.1 12 Oeste 24 Noroeste 0 -- -- 33
2019-06-10 22:00:00 17.6 15 Noroeste 28 Noroeste 0 -- -- 29
2019-06-10 21:00:00 20.1 19 Noroeste 33 Oeste 0 -- -- 24
2019-06-10 20:00:00 21 13 Noroeste 30 Oeste 0 -- -- 26
2019-06-10 19:00:00 20.9 15 Noroeste 28 Noroeste 0 -- -- 24
2019-06-10 18:00:00 21 10 Norte 27 Noroeste 0 -- -- 25
2019-06-10 17:00:00 21.1 11 Oeste 27 Oeste -- -- -- 26
2019-06-10 16:00:00 20.4 12 Norte 28 Noroeste 0 -- -- 29
2019-06-10 15:00:00 19.2 8 Noroeste 22 Noroeste 0 -- -- 33
2019-06-10 14:00:00 18.2 10 Noroeste 27 Noroeste 0 -- -- 39
2019-06-10 13:00:00 17.8 7 Norte 36 Norte 0 -- -- 43
2019-06-10 12:00:00 15.8 10 Noroeste 23 Norte 0 -- -- 52
2019-06-10 11:00:00 14.4 6 Nordeste 14 Norte 0 -- -- 63
2019-06-10 10:00:00 12.2 2 Nordeste 10 Norte 0 -- -- 73
2019-06-10 09:00:00 9.5 3 Noroeste 12 Noroeste 0 -- -- 85
2019-06-10 08:00:00 9.2 4 Noroeste 9 Noroeste 0 -- -- 86
2019-06-10 07:00:00 8.2 3 Noroeste 9 Oeste 0 -- -- 87
2019-06-10 06:00:00 6.5 3 Oeste 8 Sudoeste 0 -- -- 84
2019-06-10 05:00:00 7.3 5 Sudoeste 7 Sudoeste 0 -- -- 81
2019-06-10 04:00:00 8 4 Oeste 12 Oeste 0 -- -- 80
2019-06-10 03:00:00 8.9 10 Noroeste 19 Noroeste 0 -- -- 72
2019-06-10 02:00:00 11.6 12 Noroeste 19 Oeste 0 -- -- 61
2019-06-10 01:00:00 12.2 6 Oeste 15 Oeste 0 -- -- 57
2019-06-10 00:00:00 13.2 11 Oeste 19 Noroeste 0 -- -- 52
2019-06-09 23:00:00 16 14 Noroeste 29 Noroeste 0 -- -- 45
2019-06-09 22:00:00 17.4 19 Noroeste 35 Noroeste 0 -- -- 39
2019-06-09 21:00:00 19 23 Noroeste 36 Noroeste 0 -- -- 35
2019-06-09 20:00:00 20.5 24 Noroeste 39 Noroeste 0 -- -- 31
2019-06-09 19:00:00 21.7 24 Noroeste 41 Noroeste 0 -- -- 28
2019-06-09 18:00:00 22.3 22 Noroeste 43 Oeste 0 -- -- 27
2019-06-09 17:00:00 22.5 19 Noroeste 36 Oeste 0 -- -- 29
2019-06-09 16:00:00 22.6 16 Oeste 37 Noroeste 0 -- -- 28
2019-06-09 15:00:00 21.5 14 Oeste 31 Noroeste 0 -- -- 30
2019-06-09 14:00:00 20.4 16 Noroeste 32 Noroeste 0 -- -- 29
2019-06-09 13:00:00 19.1 19 Oeste 31 Noroeste 0 -- -- 34
2019-06-09 12:00:00 17.4 13 Oeste 26 Noroeste 0 -- -- 44
2019-06-09 11:00:00 15.9 13 Noroeste 26 Norte 0 -- -- 51
2019-06-09 10:00:00 14.5 15 Noroeste 22 Noroeste 0 -- -- 57
2019-06-09 09:00:00 12.8 19 Noroeste 26 Oeste 0 -- -- 62
2019-06-09 08:00:00 10.3 3 Sudoeste 10 Sudoeste 0 -- -- 62
2019-06-09 07:00:00 7.1 3 Sudoeste 13 Sudoeste 0 -- -- 70
2019-06-09 06:00:00 8.5 7 Sudoeste 13 Sudoeste 0 -- -- 67
2019-06-09 05:00:00 10.7 8 Sudoeste 12 Sudoeste 0 -- -- 59
2019-06-09 04:00:00 12.2 4 Sudoeste 13 Oeste 0 -- -- 54
2019-06-09 03:00:00 13.6 11 Oeste 25 Oeste 0 -- -- 49
2019-06-09 02:00:00 14.7 9 Oeste 21 Oeste 0 -- -- 43
2019-06-09 01:00:00 15.8 6 Oeste 10 Sudoeste 0 -- -- 39
2019-06-09 00:00:00 16.8 5 Sudoeste 13 Noroeste 0 -- -- 37
2019-06-08 23:00:00 18.2 7 Sudoeste 12 Sudoeste 0 -- -- 33
2019-06-08 22:00:00 19.9 5 Oeste 19 Oeste 0 -- -- 31
2019-06-08 21:00:00 21.8 12 Oeste 23 Sudoeste 0 -- -- 28
2019-06-08 20:00:00 22.9 9 Oeste 19 Noroeste 0 -- -- 26
2019-06-08 19:00:00 23.4 14 Noroeste 32 Oeste 0 -- -- 25
2019-06-08 18:00:00 24.9 12 Sur 28 Sur 0 -- -- 22
2019-06-08 17:00:00 25.2 12 Sudoeste 34 Sur 0 -- -- 22
2019-06-08 16:00:00 24.4 14 Sur 36 Sur 0 -- -- 24
2019-06-08 15:00:00 24.1 17 Sudeste 30 Sudeste 0 -- -- 24
2019-06-08 14:00:00 23.5 10 Sur 36 Sur 0 -- -- 25
2019-06-08 13:00:00 21.5 12 Este 24 Este 0 -- -- 30
2019-06-08 12:00:00 18.6 7 Este 17 Nordeste 0 -- -- 35
2019-06-08 11:00:00 16.4 7 Este 16 Nordeste 0 -- -- 37
2019-06-08 10:00:00 14.9 4 Este 10 Nordeste 0 -- -- 42
2019-06-08 09:00:00 12.1 0 Calma 3 Nordeste 0 -- -- 55
2019-06-08 08:00:00 6.4 3 Sudoeste 8 Sudoeste 0 -- -- 76
2019-06-08 07:00:00 2.9 6 Sudoeste 9 Sudoeste 0 -- -- 84
2019-06-08 06:00:00 3.3 5 Sudoeste 9 Sudoeste 0 -- -- 83
2019-06-08 05:00:00 4.3 5 Sudoeste 10 Sudoeste 0 -- -- 78
2019-06-08 04:00:00 4.4 8 Sudoeste 10 Sudoeste 0 -- -- 77
2019-06-08 03:00:00 5.3 7 Sudoeste 10 Sudoeste 0 -- -- 73
2019-06-08 02:00:00 6.2 8 Sudoeste 12 Sudoeste 0 -- -- 69
2019-06-08 01:00:00 6.9 6 Sudoeste 10 Sudoeste 0 -- -- 68
2019-06-08 00:00:00 7.9 5 Sudoeste 8 Sudoeste 0 -- -- 66
2019-06-07 23:00:00 10.4 0 Calma 6 Noroeste 0 -- -- 53
2019-06-07 22:00:00 12.7 5 Noroeste 17 Norte 0 -- -- 45
2019-06-07 21:00:00 15.7 11 Noroeste 26 Noroeste 0 -- -- 35
2019-06-07 20:00:00 16.5 13 Noroeste 35 Noroeste 0 -- -- 34
2019-06-07 19:00:00 16.7 10 Noroeste 30 Noroeste 0 -- -- 35
2019-06-07 18:00:00 17.1 13 Noroeste 32 Noroeste 0 -- -- 34
2019-06-07 17:00:00 16.8 17 Noroeste 30 Oeste 0 -- -- 35
2019-06-07 16:00:00 15.9 12 Noroeste 32 Noroeste 0 -- -- 39
2019-06-07 15:00:00 14.6 17 Noroeste 31 Noroeste 0 -- -- 44
2019-06-07 14:00:00 13.9 17 Noroeste 32 Oeste 0 -- -- 47
2019-06-07 13:00:00 12.5 19 Noroeste 33 Noroeste 0 -- -- 52
2019-06-07 12:00:00 11.3 22 Oeste 34 Oeste 0 -- -- 59
2019-06-07 11:00:00 10.1 24 Oeste 37 Oeste 0 -- -- 64
2019-06-07 10:00:00 8.8 25 Oeste 35 Oeste 0 -- -- 72
2019-06-07 09:00:00 8.2 24 Oeste 34 Noroeste 0 -- -- 75
2019-06-07 08:00:00 8.1 13 Oeste 25 Oeste 0 -- -- 79
2019-06-07 07:00:00 5.6 8 Oeste 26 Oeste 0 -- -- 89
2019-06-07 06:00:00 5.8 23 Oeste 37 Oeste 0 -- -- 85
2019-06-07 05:00:00 5.8 13 Sudoeste 32 Oeste 0 -- -- 85
2019-06-07 04:00:00 7.1 27 Oeste 41 Oeste 0 -- -- 85
2019-06-07 03:00:00 7.5 15 Oeste 27 Oeste 0.2 -- -- 88
2019-06-07 02:00:00 7.3 18 Oeste 48 Oeste 0.8 -- -- 95
2019-06-07 01:00:00 8.5 27 Oeste 49 Oeste 1.8 -- -- 93
2019-06-07 00:00:00 14.8 17 Sudoeste 47 Sur 0 -- -- 58
2019-06-06 23:00:00 15.9 18 Sudoeste 40 Sudoeste 0 -- -- 48
2019-06-06 22:00:00 16.7 18 Sudoeste 40 Sudoeste 0 -- -- 41
2019-06-06 21:00:00 18.1 27 Sudoeste 49 Sudoeste 0 -- -- 36
2019-06-06 20:00:00 18.4 24 Sudoeste 48 Sudoeste 0 -- -- 35
2019-06-06 19:00:00 20.3 21 Sudoeste 52 Sur 0 -- -- 31
2019-06-06 18:00:00 21.2 22 Sudoeste 50 Sur 0 -- -- 31
2019-06-06 17:00:00 21.9 21 Sudoeste 42 Sudoeste 0 -- -- 29
2019-06-06 16:00:00 22.3 20 Sudoeste 41 Sudoeste 0 -- -- 26
2019-06-06 15:00:00 21.8 14 Sudoeste 33 Sur 0 -- -- 23
2019-06-06 14:00:00 20.9 17 Sudoeste 35 Sudoeste 0 -- -- 26
2019-06-06 13:00:00 18.7 11 Sudoeste 33 Sur 0 -- -- 27
2019-06-06 12:00:00 17.5 15 Sur 30 Sur 0 -- -- 32
2019-06-06 11:00:00 15.8 12 Sur 23 Sur 0 -- -- 38
2019-06-06 10:00:00 12.7 3 Nordeste 10 Este 0 -- -- 51
2019-06-06 09:00:00 10.6 3 Noroeste 5 Noroeste 0 -- -- 57
2019-06-06 08:00:00 5.7 3 Sur 9 Sudoeste 0 -- -- 70
2019-06-06 07:00:00 3.4 5 Sudoeste 9 Sudoeste 0 -- -- 74
2019-06-06 06:00:00 4.6 6 Sudoeste 14 Sudoeste 0 -- -- 72
2019-06-06 05:00:00 5.4 9 Sudoeste 13 Sudoeste 0 -- -- 68
2019-06-06 04:00:00 6.1 6 Sudoeste 11 Sudoeste 0 -- -- 67
2019-06-06 03:00:00 6.7 6 Oeste 12 Sudoeste 0 -- -- 63
2019-06-06 02:00:00 7.6 8 Sudoeste 12 Oeste 0 -- -- 60
2019-06-06 01:00:00 9.8 4 Oeste 16 Noroeste 0 -- -- 55
2019-06-06 00:00:00 11.2 10 Oeste 15 Oeste 0 -- -- 52
2019-06-05 23:00:00 12.1 11 Noroeste 23 Noroeste 0 -- -- 49
2019-06-05 22:00:00 13 14 Noroeste 28 Noroeste 0 -- -- 44
2019-06-05 21:00:00 14.4 21 Noroeste 35 Noroeste 0 -- -- 41
2019-06-05 20:00:00 15.8 21 Oeste 41 Oeste 0 -- -- 32
2019-06-05 19:00:00 16.7 19 Noroeste 40 Oeste 0 -- -- 33
2019-06-05 18:00:00 16 23 Noroeste 39 Oeste 0 -- -- 33
2019-06-05 17:00:00 16.3 19 Noroeste 39 Noroeste 0 -- -- 33
2019-06-05 16:00:00 16.3 26 Oeste 44 Noroeste 0 -- -- 33
2019-06-05 15:00:00 15.8 25 Noroeste 46 Oeste 0 -- -- 37
2019-06-05 14:00:00 15.2 27 Oeste 42 Oeste 0 -- -- 40
2019-06-05 13:00:00 13.1 25 Noroeste 39 Noroeste 0 -- -- 46
2019-06-05 12:00:00 12.4 29 Oeste 40 Oeste 0 -- -- 52
2019-06-05 11:00:00 10.9 27 Noroeste 44 Noroeste 0 -- -- 60
2019-06-05 10:00:00 10.7 31 Noroeste 43 Noroeste 0 -- -- 64
2019-06-05 09:00:00 8.8 34 Oeste 47 Oeste 0 -- -- 73
2019-06-05 08:00:00 7.9 28 Oeste 44 Oeste 0 -- -- 78
2019-06-05 07:00:00 7.8 21 Oeste 40 Oeste 0 -- -- 79
2019-06-05 06:00:00 8.5 25 Oeste 37 Noroeste 0 -- -- 78
2019-06-05 05:00:00 9.6 20 Noroeste 37 Noroeste 0 -- -- 73
2019-06-05 04:00:00 10.3 24 Noroeste 37 Oeste 0 -- -- 69
2019-06-05 03:00:00 10.8 26 Noroeste 43 Oeste 0 -- -- 69
2019-06-05 02:00:00 12.5 27 Noroeste 42 Noroeste 0 -- -- 58
2019-06-05 01:00:00 14.1 24 Noroeste 31 Noroeste 0 -- -- 56
2019-06-05 00:00:00 15.1 15 Noroeste 27 Noroeste 0 -- -- 57
2019-06-04 23:00:00 15.7 6 Noroeste 17 Noroeste 0 -- -- 57
2019-06-04 22:00:00 16.2 13 Noroeste 26 Oeste 0 -- -- 59
2019-06-04 21:00:00 17.2 20 Noroeste 39 Noroeste 0 -- -- 57
2019-06-04 20:00:00 18.5 26 Noroeste 46 Noroeste 0 -- -- 56
2019-06-04 19:00:00 20.4 31 Noroeste 53 Oeste 0 -- -- 50
2019-06-04 18:00:00 24.6 23 Oeste 44 Oeste 0 -- -- 34
2019-06-04 17:00:00 23.6 23 Oeste 45 Noroeste 0 -- -- 36
2019-06-04 16:00:00 23.2 21 Oeste 39 Noroeste 0 -- -- 36
2019-06-04 15:00:00 24 18 Noroeste 37 Noroeste 0 -- -- 35
2019-06-04 14:00:00 23.2 18 Oeste 34 Noroeste 0 -- -- 37
2019-06-04 13:00:00 21.1 15 Noroeste 31 Noroeste 0 -- -- 45
2019-06-04 12:00:00 19.6 9 Noroeste 21 Noroeste 0 -- -- 53
2019-06-04 11:00:00 18 8 Noroeste 22 Noroeste 0 -- -- 59
2019-06-04 10:00:00 16.5 9 Noroeste 19 Noroeste 0 -- -- 65
2019-06-04 09:00:00 14.5 7 Oeste 19 Oeste 0 -- -- 77
2019-06-04 08:00:00 12.8 4 Oeste 11 Noroeste 0 -- -- 84
2019-06-04 07:00:00 9.9 8 Noroeste 13 Noroeste 0 -- -- 85
2019-06-04 06:00:00 10 4 Oeste 8 Sur 0 -- -- 71
2019-06-04 05:00:00 11.5 3 Sur 6 Sudoeste 0 -- -- 69
2019-06-04 04:00:00 14.1 2 Sudoeste 7 Noroeste 0 -- -- 68
2019-06-04 03:00:00 15.9 5 Sudeste 21 Oeste 0 -- -- 63
2019-06-04 02:00:00 17.3 5 Sudoeste 17 Oeste 0 -- -- 59
2019-06-04 01:00:00 18.2 8 Oeste 19 Sudoeste 0 -- -- 42
2019-06-04 00:00:00 17.8 12 Sudoeste 17 Sudoeste 0 -- -- 32
2019-06-03 23:00:00 20 6 Sudoeste 14 Oeste 0 -- -- 27
2019-06-03 22:00:00 23 8 Oeste 26 Oeste 0 -- -- 22
2019-06-03 21:00:00 26.7 19 Oeste 37 Oeste 0 -- -- 18
2019-06-03 20:00:00 28.4 20 Oeste 40 Oeste 0 -- -- 15
2019-06-03 19:00:00 29 22 Oeste 42 Oeste 0 -- -- 15
2019-06-03 18:00:00 30.2 24 Oeste 48 Sudoeste 0 -- -- 13
2019-06-03 17:00:00 30.6 24 Oeste 49 Oeste 0 -- -- 14
2019-06-03 16:00:00 30.1 31 Oeste 50 Oeste 0 -- -- 12
2019-06-03 15:00:00 30.4 26 Oeste 47 Oeste 0 -- -- 12
2019-06-03 14:00:00 29.4 18 Oeste 37 Noroeste 0 -- -- 15
2019-06-03 13:00:00 27.4 16 Oeste 30 Oeste 0 -- -- 22
2019-06-03 12:00:00 26 5 Norte 12 Noroeste 0 -- -- 27
2019-06-03 11:00:00 23.1 4 Este 11 Nordeste 0 -- -- 33
2019-06-03 10:00:00 22.5 5 Norte 15 Noroeste 0 -- -- 35
2019-06-03 09:00:00 19.3 9 Noroeste 17 Noroeste 0 -- -- 41
2019-06-03 08:00:00 15.1 3 Sur 8 Sudoeste 0 -- -- 50
2019-06-03 07:00:00 14.6 4 Sudoeste 9 Sur 0 -- -- 49
2019-06-03 06:00:00 14.3 2 Sur 6 Sudoeste 0 -- -- 48
2019-06-03 05:00:00 15.6 4 Sudoeste 8 Sudoeste 0 -- -- 45
2019-06-03 04:00:00 16.1 5 Sudoeste 13 Sudoeste 0 -- -- 44
2019-06-03 03:00:00 16.9 8 Sudoeste 12 Sudoeste 0 -- -- 40
2019-06-03 02:00:00 18.2 8 Sudoeste 15 Sudoeste 0 -- -- 37
2019-06-03 01:00:00 18.7 9 Sudoeste 14 Sudoeste 0 -- -- 36
2019-06-03 00:00:00 19.3 8 Oeste 15 Oeste 0 -- -- 33
2019-06-02 23:00:00 21.9 7 Oeste 14 Oeste 0 -- -- 29
2019-06-02 22:00:00 24.2 9 Oeste 21 Oeste 0 -- -- 26
2019-06-02 21:00:00 27.2 14 Oeste 35 Oeste 0 -- -- 23
2019-06-02 20:00:00 28.3 22 Oeste 36 Oeste 0 -- -- 21
2019-06-02 19:00:00 28.7 26 Oeste 44 Oeste 0 -- -- 20
2019-06-02 18:00:00 30.6 22 Oeste 35 Oeste 0 -- -- 21
2019-06-02 17:00:00 30.8 24 Oeste 41 Oeste 0 -- -- 20
2019-06-02 16:00:00 31.3 22 Noroeste 45 Oeste 0 -- -- 19
2019-06-02 15:00:00 31 14 Noroeste 35 Noroeste 0 -- -- 20
2019-06-02 14:00:00 30.2 13 Noroeste 31 Oeste 0 -- -- 20
2019-06-02 13:00:00 30 9 Norte 47 Oeste 0 -- -- 20
2019-06-02 12:00:00 28.5 6 Nordeste 18 Noroeste 0 -- -- 20
2019-06-02 11:00:00 28.6 3 Noroeste 12 Norte 0 -- -- 23
2019-06-02 10:00:00 25.4 6 Noroeste 15 Noroeste 0 -- -- 27
2019-06-02 09:00:00 23.8 3 Sudoeste 8 Sudoeste 0 -- -- 32
2019-06-02 08:00:00 18 4 Sudoeste 14 Sudoeste 0 -- -- 41
2019-06-02 07:00:00 14.8 8 Sudoeste 14 Sudoeste 0 -- -- 45
2019-06-02 06:00:00 15.7 9 Sudoeste 13 Sudoeste 0 -- -- 44
2019-06-02 05:00:00 17.2 10 Sudoeste 16 Sudoeste 0 -- -- 42
2019-06-02 04:00:00 18.1 9 Sudoeste 17 Sudoeste 0 -- -- 40
2019-06-02 03:00:00 20.2 7 Oeste 20 Oeste 0 -- -- 36
2019-06-02 02:00:00 21.3 12 Oeste 31 Oeste 0 -- -- 34
2019-06-02 01:00:00 21.7 12 Oeste 22 Oeste 0 -- -- 30
2019-06-02 00:00:00 21.6 7 Sudoeste 18 Oeste 0 -- -- 30
2019-06-01 23:00:00 21.6 11 Sudoeste 15 Oeste 0 -- -- 26
2019-06-01 22:00:00 25.2 5 Oeste 9 Oeste 0 -- -- 21
2019-06-01 21:00:00 28.8 6 Norte 24 Noroeste 0 -- -- 17
2019-06-01 20:00:00 30.5 9 Norte 21 Noroeste 0 -- -- 16
2019-06-01 19:00:00 31.1 11 Norte 52 Noroeste 0 -- -- 15
2019-06-01 18:00:00 31.5 7 Nordeste 22 Norte 0 -- -- 15
2019-06-01 17:00:00 31.5 11 Nordeste 25 Norte 0 -- -- 15
2019-06-01 16:00:00 31.7 12 Nordeste 28 Norte 0 -- -- 15
2019-06-01 15:00:00 30.9 9 Nordeste 25 Noroeste 0 -- -- 17
2019-06-01 14:00:00 30.4 6 Nordeste 32 Noroeste 0 -- -- 16
2019-06-01 13:00:00 29.7 10 Nordeste 20 Noroeste 0 -- -- 17
2019-06-01 12:00:00 28.6 11 Noroeste 21 Noroeste 0 -- -- 19
2019-06-01 11:00:00 27.4 10 Oeste 16 Noroeste 0 -- -- 22
2019-06-01 10:00:00 26.2 4 Noroeste 13 Sudoeste 0 -- -- 23
2019-06-01 09:00:00 23.9 6 Sudoeste 16 Sudoeste 0 -- -- 27
2019-06-01 08:00:00 20.1 6 Sur 17 Sudeste 0 -- -- 32
2019-06-01 07:00:00 17.1 7 Sur 23 Sur 0 -- -- 35
2019-06-01 06:00:00 16.5 6 Sudoeste 28 Sur 0 -- -- 36
2019-06-01 05:00:00 13.3 7 Sudeste 19 Sudeste 0 -- -- 37
2019-06-01 04:00:00 13.1 4 Sur 12 Sudeste 0 -- -- 36
2019-06-01 03:00:00 13.9 4 Sudoeste 9 Sudoeste 0 -- -- 38
2019-06-01 02:00:00 14.9 4 Sur 12 Sudoeste 0 -- -- 36
2019-06-01 01:00:00 16.4 8 Sudoeste 13 Sudoeste 0 -- -- 29
2019-06-01 00:00:00 16.8 6 Sudoeste 13 Sur 0 -- -- 26
2019-05-31 23:00:00 18.3 7 Sudoeste 9 Sudoeste 0 -- -- 25
2019-05-31 22:00:00 24.5 4 Norte 11 Norte 0 -- -- 18
2019-05-31 21:00:00 28.6 7 Norte 18 Noroeste 0 -- -- 14
2019-05-31 20:00:00 29.3 10 Norte 21 Noroeste 0 -- -- 14
2019-05-31 19:00:00 29.5 14 Norte 27 Norte 0 -- -- 15
2019-05-31 18:00:00 29.8 10 Noroeste 27 Norte 0 -- -- 16
2019-05-31 17:00:00 30.2 11 Norte 23 Norte 0 -- -- 17
2019-05-31 16:00:00 29.5 14 Noroeste 24 Nordeste 0 -- -- 19
2019-05-31 15:00:00 29.4 6 Nordeste 25 Norte 0 -- -- 19
2019-05-31 14:00:00 28.7 10 Norte 21 Norte 0 -- -- 18
2019-05-31 13:00:00 28 11 Nordeste 25 Norte 0 -- -- 21
2019-05-31 12:00:00 27.3 6 Nordeste 18 Este 0 -- -- 23
2019-05-31 11:00:00 26.3 11 Nordeste 19 Nordeste 0 -- -- 24
2019-05-31 10:00:00 25.9 8 Sur 22 Sur 0 -- -- 26
2019-05-31 09:00:00 23.2 11 Sur 22 Sur 0 -- -- 29
2019-05-31 08:00:00 17.9 0 Calma 11 Sur 0 -- -- 38
2019-05-31 07:00:00 14 6 Sur 15 Sur 0 -- -- 43
2019-05-31 06:00:00 15 10 Sur 16 Sudeste 0 -- -- 40
2019-05-31 05:00:00 15.8 9 Sudeste 23 Sudeste 0 -- -- 38
2019-05-31 04:00:00 17.9 13 Sur 24 Sur 0 -- -- 34
2019-05-31 03:00:00 12.8 4 Sur 10 Sudoeste 0 -- -- 46
2019-05-31 02:00:00 13.1 7 Sudoeste 9 Sudoeste 0 -- -- 45
2019-05-31 01:00:00 16.9 4 Sur 14 Sudeste 0 -- -- 38
2019-05-31 00:00:00 18 8 Sudeste 18 Nordeste 0 -- -- 37
2019-05-30 23:00:00 20.3 14 Nordeste 22 Nordeste 0 -- -- 32
2019-05-30 22:00:00 21.7 10 Nordeste 17 Nordeste 0 -- -- 27
2019-05-30 21:00:00 25.6 11 Nordeste 21 Nordeste 0 -- -- 21
2019-05-30 20:00:00 27.2 14 Norte 28 Nordeste 0 -- -- 17
2019-05-30 19:00:00 27.7 10 Nordeste 28 Este 0 -- -- 16
2019-05-30 18:00:00 28 14 Nordeste 28 Nordeste 0 -- -- 17
2019-05-30 17:00:00 27.7 9 Sudeste 28 Nordeste 0 -- -- 19
2019-05-30 16:00:00 27.4 9 Este 27 Este 0 -- -- 19
2019-05-30 15:00:00 26.8 15 Nordeste 28 Este 0 -- -- 19
2019-05-30 14:00:00 25.1 11 Nordeste 23 Nordeste 0 -- -- 23
2019-05-30 13:00:00 23.3 10 Nordeste 19 Nordeste 0 -- -- 28
2019-05-30 12:00:00 21.3 8 Este 15 Nordeste 0 -- -- 34
2019-05-30 11:00:00 19.5 9 Nordeste 15 Nordeste 0 -- -- 39
2019-05-30 10:00:00 17.5 3 Este 8 Este 0 -- -- 44
2019-05-30 09:00:00 15 2 Sudeste 5 Sudeste 0 -- -- 51
2019-05-30 08:00:00 9.6 0 Calma 8 Sudoeste 0 -- -- 66
2019-05-30 07:00:00 5 3 Sudoeste 7 Sudoeste 0 -- -- 77
2019-05-30 06:00:00 6 3 Sudoeste 5 Sur 0 -- -- 75
2019-05-30 05:00:00 6.5 4 Sur 8 Sur 0 -- -- 72
2019-05-30 04:00:00 7.2 2 Sudoeste 8 Sudoeste 0 -- -- 68
2019-05-30 03:00:00 8.4 4 Sudoeste 10 Sudoeste 0 -- -- 65
2019-05-30 02:00:00 9.2 5 Sur 11 Sudoeste 0 -- -- 62
2019-05-30 01:00:00 11.3 2 Sudeste 9 Este 0 -- -- 57
2019-05-30 00:00:00 13.3 6 Este 13 Este 0 -- -- 52
2019-05-29 23:00:00 14.2 4 Nordeste 17 Nordeste 0 -- -- 49
2019-05-29 22:00:00 16.3 9 Nordeste 24 Nordeste 0 -- -- 42
2019-05-29 21:00:00 19.3 16 Nordeste 32 Nordeste 0 -- -- 36
2019-05-29 20:00:00 20.8 20 Nordeste 32 Nordeste 0 -- -- 34
2019-05-29 19:00:00 21.7 19 Nordeste 31 Nordeste 0 -- -- 32
2019-05-29 18:00:00 22.4 17 Nordeste 34 Nordeste 0 -- -- 31
2019-05-29 17:00:00 22.2 17 Nordeste 31 Norte 0 -- -- 32
2019-05-29 16:00:00 21.6 18 Nordeste 36 Norte 0 -- -- 34
2019-05-29 15:00:00 21 15 Norte 32 Nordeste 0 -- -- 37
2019-05-29 14:00:00 19.8 15 Nordeste 32 Este 0 -- -- 39
2019-05-29 13:00:00 18.4 16 Nordeste 31 Nordeste 0 -- -- 41
2019-05-29 12:00:00 16.9 20 Nordeste 28 Este 0 -- -- 43
2019-05-29 11:00:00 15 14 Nordeste 31 Este 0 -- -- 46
2019-05-29 10:00:00 12.5 12 Este 20 Nordeste 0 -- -- 52
2019-05-29 09:00:00 11.7 2 Sur 6 Sur 0 -- -- 55
2019-05-29 08:00:00 7.4 0 Calma 6 Sudoeste 0 -- -- 68
2019-05-29 07:00:00 3.4 5 Sudoeste 7 Sudoeste 0 -- -- 78
2019-05-29 06:00:00 3.6 3 Sudoeste 6 Oeste 0 -- -- 74
2019-05-29 05:00:00 4.6 3 Sudoeste 5 Sudoeste 0 -- -- 70
2019-05-29 04:00:00 6.4 0 Calma 8 Nordeste 0 -- -- 69
2019-05-29 03:00:00 7.2 0 Calma 9 Nordeste 0 -- -- 65
2019-05-29 02:00:00 8.9 0 Calma 7 Nordeste 0 -- -- 58
2019-05-29 01:00:00 10.4 5 Nordeste 20 Nordeste 0 -- -- 52
2019-05-29 00:00:00 12.2 16 Nordeste 33 Nordeste 0 -- -- 47
2019-05-28 23:00:00 13.8 20 Nordeste 31 Nordeste 0 -- -- 49
2019-05-28 22:00:00 16.2 17 Este 25 Este 0 -- -- 42
2019-05-28 21:00:00 18.9 12 Nordeste 23 Nordeste 0 -- -- 35
2019-05-28 20:00:00 20.4 15 Norte 27 Nordeste 0 -- -- 33
2019-05-28 19:00:00 21.2 17 Norte 36 Norte 0 -- -- 30
2019-05-28 18:00:00 21.9 19 Norte 38 Norte 0 -- -- 28
2019-05-28 17:00:00 22 14 Norte 32 Norte 0 -- -- 26
2019-05-28 16:00:00 21.4 9 Norte 28 Norte 0 -- -- 27
2019-05-28 15:00:00 20.5 10 Norte 27 Norte 0 -- -- 27
2019-05-28 14:00:00 19.3 12 Norte 26 Nordeste 0 -- -- 30
2019-05-28 13:00:00 17.6 8 Norte 35 Norte 0 -- -- 34
2019-05-28 12:00:00 16.2 9 Nordeste 21 Nordeste 0 -- -- 39
2019-05-28 11:00:00 14.2 10 Nordeste 19 Norte 0 -- -- 46
2019-05-28 10:00:00 12.1 8 Nordeste 17 Nordeste 0 -- -- 58
2019-05-28 09:00:00 10.2 12 Nordeste 20 Nordeste 0 -- -- 68
2019-05-28 08:00:00 8.5 6 Nordeste 10 Nordeste 0 -- -- 77
2019-05-28 07:00:00 6.5 5 Nordeste 8 Norte 0 -- -- 82
2019-05-28 06:00:00 7.3 0 Calma 4 Nordeste 0 -- -- 79
2019-05-28 05:00:00 8.4 0 Calma 5 Noroeste 0 -- -- 78
2019-05-28 04:00:00 9.3 4 Norte 7 Norte 0 -- -- 77
2019-05-28 03:00:00 10.5 4 Norte 7 Noroeste 0 -- -- 73
2019-05-28 02:00:00 12.1 3 Nordeste 18 Nordeste 0 -- -- 70
2019-05-28 01:00:00 13.9 6 Nordeste 25 Nordeste 0 -- -- 65
2019-05-28 00:00:00 15.3 13 Nordeste 19 Nordeste 0 -- -- 58